Estación de San Nicolás

Ultimos registro cada 15 minutos 95
Estación Fecha / Hora Temperatura Humedad Lluvia Velocidad Dirección Radiación Presion
95 San Nicolás 30-08-2026 23:30 11,3 88 0,3 0,9 111 0 1019,2
94 San Nicolás 30-08-2026 23:15 11,3 88 0 1,3 111 0 1019,1
93 San Nicolás 30-08-2026 23:00 11,6 87 0,3 0,9 300 0 1019
92 San Nicolás 30-08-2026 22:45 11,7 87 0 0,4 309 0 1018,9
91 San Nicolás 30-08-2026 22:30 11,8 86 0 0 309 0 1019
90 San Nicolás 30-08-2026 22:15 11,8 85 0 0 309 0 1019,1
89 San Nicolás 30-08-2026 22:00 11,9 86 0 0 309 0 1019
88 San Nicolás 30-08-2026 21:45 12,1 86 0 0 309 0 1019
87 San Nicolás 30-08-2026 21:30 12,3 82 0 0 309 0 1018,9
86 San Nicolás 30-08-2026 21:15 12,4 79 0 0 309 0 1018,6
85 San Nicolás 30-08-2026 21:00 12,6 79 0 0 309 0 1018,6
84 San Nicolás 30-08-2026 20:45 12,7 79 0 0,4 308 0 1018,2
83 San Nicolás 30-08-2026 20:30 12,9 79 0 0 308 0 1018,2
82 San Nicolás 30-08-2026 20:15 13,1 77 0 0 308 0 1018,3
81 San Nicolás 30-08-2026 20:00 13,3 78 0 0 18 0 1018,1
80 San Nicolás 30-08-2026 19:45 13,4 74 0 0 18 0 1017,9
79 San Nicolás 30-08-2026 19:30 13,7 73 0 0 18 0 1017,7
78 San Nicolás 30-08-2026 19:15 13,9 71 0 0 18 0 1017,1
77 San Nicolás 30-08-2026 19:00 14 72 0 0,4 18 0 1016,8
76 San Nicolás 30-08-2026 18:45 14,2 74 0 0 18 0 1016,6
75 San Nicolás 30-08-2026 18:30 14,4 74 0 0 18 0 1016,5
74 San Nicolás 30-08-2026 18:15 14,8 76 0 0 19 0 1016,3
73 San Nicolás 30-08-2026 18:00 15,2 78 0 0 17 14 1016,2
72 San Nicolás 30-08-2026 17:45 15,4 79 0 0 11 23 1015,9
71 San Nicolás 30-08-2026 17:30 15,6 78 0 0 11 39 1015,8
70 San Nicolás 30-08-2026 17:15 15,7 78 0 0,4 9 37 1015,8
69 San Nicolás 30-08-2026 17:00 15,8 76 0 0,9 15 69 1015,5
68 San Nicolás 30-08-2026 16:45 16 77 0 1,8 26 90 1015,3
67 San Nicolás 30-08-2026 16:30 16,1 77 0 3,1 36 113 1015,1
66 San Nicolás 30-08-2026 16:15 16,1 76 0 2,7 61 121 1015,3
65 San Nicolás 30-08-2026 16:00 16,2 74 0 1,3 25 149 1015
64 San Nicolás 30-08-2026 15:45 16,2 73 0 1,8 44 149 1014,8
63 San Nicolás 30-08-2026 15:30 16,2 73 0 2,2 47 151 1014,7
62 San Nicolás 30-08-2026 15:15 16,3 72 0 3,1 17 225 1014,6
61 San Nicolás 30-08-2026 15:00 16,3 72 0 2,2 44 276 1014,8
60 San Nicolás 30-08-2026 14:45 16,3 74 0 3,1 54 316 1014,8
59 San Nicolás 30-08-2026 14:30 16,3 72 0 3,1 40 297 1014,8
58 San Nicolás 30-08-2026 14:15 16,4 74 0 3,6 354 367 1014,8
57 San Nicolás 30-08-2026 14:00 16,2 78 0 3,1 65 541 1014,8
56 San Nicolás 30-08-2026 13:45 15,4 82 0 1,8 38 722 1014,9
55 San Nicolás 30-08-2026 13:30 14,7 85 0 1,8 35 626 1015,1
54 San Nicolás 30-08-2026 13:15 14,4 85 0 1,8 33 503 1015,3
53 San Nicolás 30-08-2026 13:00 14,3 88 0 0,4 36 425 1015,2
52 San Nicolás 30-08-2026 12:45 13,7 92 0 1,3 44 747 1015,4
51 San Nicolás 30-08-2026 12:30 12,7 94 0 2,2 13 735 1015,6
50 San Nicolás 30-08-2026 12:15 12,1 94 0 1,8 10 831 1015,8
49 San Nicolás 30-08-2026 12:00 11,7 95 0 1,8 341 237 1015,8
48 San Nicolás 30-08-2026 11:45 11,4 96 0 0,9 349 461 1015,8
47 San Nicolás 30-08-2026 11:30 11,2 96 0 2,2 344 343 1015,7
46 San Nicolás 30-08-2026 11:15 11,1 97 0 1,8 325 638 1015,8
45 San Nicolás 30-08-2026 11:00 10,7 97 0 1,3 23 487 1015,7
44 San Nicolás 30-08-2026 10:45 9,7 97 0 1,3 40 629 1015,4
43 San Nicolás 30-08-2026 10:30 9,2 97 0 1,8 46 410 1015,5
42 San Nicolás 30-08-2026 10:15 8,5 97 0 1,3 44 213 1015,4
41 San Nicolás 30-08-2026 10:00 8,1 97 0 2,7 64 336 1015,5
40 San Nicolás 30-08-2026 09:45 7,4 96 0 1,3 69 200 1015,5
39 San Nicolás 30-08-2026 09:30 7,5 96 0 0,9 61 125 1015,3
38 San Nicolás 30-08-2026 09:15 7,4 97 0 0 346 95 1015,2
37 San Nicolás 30-08-2026 09:00 6,9 97 0 0 346 200 1015,1
36 San Nicolás 30-08-2026 08:45 6,4 97 0 0 15 167 1015
35 San Nicolás 30-08-2026 08:30 5,9 96 0 0 15 135 1014,9
34 San Nicolás 30-08-2026 08:15 5,3 96 0 0 15 116 1014,8
33 San Nicolás 30-08-2026 08:00 5 96 0 0 15 63 1014,6
32 San Nicolás 30-08-2026 07:45 4,8 96 0 0,9 294 39 1014,7
31 San Nicolás 30-08-2026 07:30 4,4 95 0 0 288 28 1014,2
30 San Nicolás 30-08-2026 07:15 4,4 95 0 0 288 9 1013,9
29 San Nicolás 30-08-2026 07:00 4,4 95 0 0 288 0 1013,9
28 San Nicolás 30-08-2026 06:45 4,4 95 0 0 288 0 1013,8
27 San Nicolás 30-08-2026 06:30 4,4 95 0 0 288 0 1013,3
26 San Nicolás 30-08-2026 06:15 4,6 95 0 0 288 0 1013,3
25 San Nicolás 30-08-2026 06:00 4,6 95 0 0 288 0 1013,2
24 San Nicolás 30-08-2026 05:45 4,8 94 0 0 288 0 1013,3
23 San Nicolás 30-08-2026 05:30 5 95 0 0 288 0 1013,1
22 San Nicolás 30-08-2026 05:15 5,2 95 0 0 288 0 1013,2
21 San Nicolás 30-08-2026 05:00 5,2 95 0 0 288 0 1013,4
20 San Nicolás 30-08-2026 04:45 5,3 94 0 0 288 0 1013,4
19 San Nicolás 30-08-2026 04:30 5,6 94 0,3 0 288 0 1013,3
18 San Nicolás 30-08-2026 04:15 5,9 95 0 0 289 0 1013,3
17 San Nicolás 30-08-2026 04:00 5,6 95 0 0 288 0 1013,3
16 San Nicolás 30-08-2026 03:45 5,7 94 0 0 288 0 1013,4
15 San Nicolás 30-08-2026 03:30 5,9 93 0 0 288 0 1013,5
14 San Nicolás 30-08-2026 03:15 6,2 94 0 0 288 0 1013,7
13 San Nicolás 30-08-2026 03:00 6,4 94 0 0 288 0 1013,9
12 San Nicolás 30-08-2026 02:45 6,6 94 0 0 288 0 1014,1
11 San Nicolás 30-08-2026 02:30 7,2 94 0 0 289 0 1014,2
10 San Nicolás 30-08-2026 02:15 7,3 94 0 0 289 0 1014,5
9 San Nicolás 30-08-2026 02:00 7,5 94 0 0 288 0 1014,7
8 San Nicolás 30-08-2026 01:45 7,5 94 0 0 288 0 1014,7
7 San Nicolás 30-08-2026 01:30 7,3 94 0 0 288 0 1014,8
6 San Nicolás 30-08-2026 01:15 7,7 93 0 0 289 0 1015,1
5 San Nicolás 30-08-2026 01:00 8,2 94 0 0 289 0 1015,4
4 San Nicolás 30-08-2026 00:45 8,1 93 0 0 288 0 1015,4
3 San Nicolás 30-08-2026 00:30 8,5 93 0 0 288 0 1015,6
2 San Nicolás 30-08-2026 00:15 8,9 93 0 0 288 0 1015,6
1 San Nicolás 30-08-2026 00:00 9,2 93 0 0 288 0 1016